KMDW

Chicago Midway International Airport

Chicago, Illinois, USA
KMDW 162330Z 1700/1806 07010KT P6SM BKN025 FM170300 08008KT P6SM SCT025 OVC035 FM171100 10006KT P6SM OVC015 FM171400 10004KT 4SM -SN BR OVC008 FM172000 29006KT P6SM OVC012 FM180100 29008KT P6SM BKN015 OVC025
Issued Valid From Valid To
Jan-16 @ 23:30 UTC
(an hour ago)
Jan-17 @ 00:00 UTC
(37 minutes ago)
Jan-18 @ 06:00 UTC
(-1 days ago)
Jan-17 @ 00:00 to Jan-17 @ 03:00
KMDW 162330Z 1700/1806 07010KT P6SM BKN025
Wind Visibility Clouds
70° at 10 knots Greater than 6 miles
  • Broken at 2,500' AGL
From Jan-17 @ 03:00 to Jan-17 @ 11:00
FM170300 08008KT P6SM SCT025 OVC035
Wind Visibility Clouds
80° at 8 knots Greater than 6 miles
  • Scattered at 2,500' AGL
  • Overcast at 3,500' AGL
From Jan-17 @ 11:00 to Jan-17 @ 14:00
FM171100 10006KT P6SM OVC015
Wind Visibility Clouds
100° at 6 knots Greater than 6 miles
  • Overcast at 1,500' AGL
From Jan-17 @ 14:00 to Jan-17 @ 20:00
FM171400 10004KT 4SM -SN BR OVC008
Wind Visibility Clouds Conditions
100° at 4 knots 4 miles
  • Overcast at 800' AGL
  • Light Snow
  • Mist
From Jan-17 @ 20:00 to Jan-18 @ 01:00
FM172000 29006KT P6SM OVC012
Wind Visibility Clouds
290° at 6 knots Greater than 6 miles
  • Overcast at 1,200' AGL
From Jan-18 @ 01:00 to Jan-18 @ 06:00
FM180100 29008KT P6SM BKN015 OVC025
Wind Visibility Clouds
290° at 8 knots Greater than 6 miles
  • Broken at 1,500' AGL
  • Overcast at 2,500' AGL
KMDW 162330Z 1700/1806 07010KT P6SM BKN025 FM170300 08008KT P6SM SCT025 OVC035 FM171100 10006KT P6SM OVC015 FM171400 10004KT 4SM -SN BR OVC008 FM172000 29006KT P6SM OVC012 FM180100 29008KT P6SM BKN015 OVC025
Issued Jan-16 @ 23:30 UTC
(an hour ago)
Valid From Jan-17 @ 00:00 UTC
(37 minutes ago)
Valid To Jan-18 @ 06:00 UTC
(-1 days ago)
Jan-17 @ 00:00 - Jan-17 @ 03:00
Wind Visibility
70° at 10 knots Greater than 6 miles
Clouds
  • Broken at 2,500' AGL
From Jan-17 @ 03:00 - Jan-17 @ 11:00
Wind Visibility
80° at 8 knots Greater than 6 miles
Clouds
  • Scattered at 2,500' AGL
  • Overcast at 3,500' AGL
From Jan-17 @ 11:00 - Jan-17 @ 14:00
Wind Visibility
100° at 6 knots Greater than 6 miles
Clouds
  • Overcast at 1,500' AGL
From Jan-17 @ 14:00 - Jan-17 @ 20:00
Wind Visibility
100° at 4 knots 4 miles
Clouds
  • Overcast at 800' AGL
Conditions
  • Light Snow
  • Mist
From Jan-17 @ 20:00 - Jan-18 @ 01:00
Wind Visibility
290° at 6 knots Greater than 6 miles
Clouds
  • Overcast at 1,200' AGL
From Jan-18 @ 01:00 - Jan-18 @ 06:00
Wind Visibility
290° at 8 knots Greater than 6 miles
Clouds
  • Broken at 1,500' AGL
  • Overcast at 2,500' AGL